sensor_id;sensor_type;location;lat;lon;timestamp;temperature;humidity
44513;DHT22;30219;50.588;9.504;2023-04-10T00:01:12;2.30;99.90
44513;DHT22;30219;50.588;9.504;2023-04-10T00:03:38;2.30;99.90
44513;DHT22;30219;50.588;9.504;2023-04-10T00:06:04;2.30;99.90
44513;DHT22;30219;50.588;9.504;2023-04-10T00:08:30;2.20;99.90
44513;DHT22;30219;50.588;9.504;2023-04-10T00:10:55;2.20;99.90
44513;DHT22;30219;50.588;9.504;2023-04-10T00:13:21;2.20;99.90
44513;DHT22;30219;50.588;9.504;2023-04-10T00:15:47;2.10;99.90
44513;DHT22;30219;50.588;9.504;2023-04-10T00:18:12;2.10;99.90
44513;DHT22;30219;50.588;9.504;2023-04-10T00:20:38;2.10;99.90
44513;DHT22;30219;50.588;9.504;2023-04-10T00:23:03;2.10;99.90
44513;DHT22;30219;50.588;9.504;2023-04-10T00:25:29;2.00;99.90
44513;DHT22;30219;50.588;9.504;2023-04-10T00:27:54;2.00;99.90
44513;DHT22;30219;50.588;9.504;2023-04-10T00:30:20;1.90;99.90
44513;DHT22;30219;50.588;9.504;2023-04-10T00:32:46;1.90;99.90
44513;DHT22;30219;50.588;9.504;2023-04-10T00:35:11;1.90;99.90
44513;DHT22;30219;50.588;9.504;2023-04-10T00:37:37;1.80;99.90
44513;DHT22;30219;50.588;9.504;2023-04-10T00:40:03;1.80;99.90
44513;DHT22;30219;50.588;9.504;2023-04-10T00:42:29;1.70;99.90
44513;DHT22;30219;50.588;9.504;2023-04-10T00:44:54;1.80;99.90
44513;DHT22;30219;50.588;9.504;2023-04-10T00:47:20;1.70;99.90
44513;DHT22;30219;50.588;9.504;2023-04-10T00:49:45;1.70;99.90
44513;DHT22;30219;50.588;9.504;2023-04-10T00:52:11;1.70;99.90
44513;DHT22;30219;50.588;9.504;2023-04-10T00:54:36;1.70;99.90
44513;DHT22;30219;50.588;9.504;2023-04-10T00:57:02;1.60;99.90
44513;DHT22;30219;50.588;9.504;2023-04-10T00:59:29;1.60;99.90
44513;DHT22;30219;50.588;9.504;2023-04-10T01:01:54;1.60;99.90
44513;DHT22;30219;50.588;9.504;2023-04-10T01:04:20;1.60;99.90
44513;DHT22;30219;50.588;9.504;2023-04-10T01:06:57;1.60;99.90
44513;DHT22;30219;50.588;9.504;2023-04-10T01:09:34;1.60;99.90
44513;DHT22;30219;50.588;9.504;2023-04-10T01:14:51;1.60;99.90
44513;DHT22;30219;50.588;9.504;2023-04-10T01:17:21;1.50;99.90
44513;DHT22;30219;50.588;9.504;2023-04-10T01:20:22;1.50;99.90
44513;DHT22;30219;50.588;9.504;2023-04-10T01:30:16;1.40;99.90
44513;DHT22;30219;50.588;9.504;2023-04-10T01:32:42;1.40;99.90
44513;DHT22;30219;50.588;9.504;2023-04-10T01:35:08;1.40;99.90
44513;DHT22;30219;50.588;9.504;2023-04-10T01:37:36;1.30;99.90
44513;DHT22;30219;50.588;9.504;2023-04-10T01:40:03;1.20;99.90
44513;DHT22;30219;50.588;9.504;2023-04-10T01:42:33;1.20;99.90
44513;DHT22;30219;50.588;9.504;2023-04-10T01:44:59;1.20;99.90
44513;DHT22;30219;50.588;9.504;2023-04-10T01:47:25;1.20;99.90
44513;DHT22;30219;50.588;9.504;2023-04-10T01:49:52;1.20;99.90
44513;DHT22;30219;50.588;9.504;2023-04-10T01:52:18;1.00;99.90
44513;DHT22;30219;50.588;9.504;2023-04-10T01:54:45;1.00;99.90
44513;DHT22;30219;50.588;9.504;2023-04-10T01:57:12;1.10;99.90
44513;DHT22;30219;50.588;9.504;2023-04-10T01:59:39;1.10;99.90
44513;DHT22;30219;50.588;9.504;2023-04-10T02:02:04;1.10;99.90
44513;DHT22;30219;50.588;9.504;2023-04-10T02:04:31;1.10;99.90
44513;DHT22;30219;50.588;9.504;2023-04-10T02:07:06;1.20;99.90
44513;DHT22;30219;50.588;9.504;2023-04-10T02:09:44;1.20;99.90
44513;DHT22;30219;50.588;9.504;2023-04-10T02:12:14;1.20;99.90
44513;DHT22;30219;50.588;9.504;2023-04-10T02:14:41;1.20;99.90
44513;DHT22;30219;50.588;9.504;2023-04-10T02:17:08;1.20;99.90
44513;DHT22;30219;50.588;9.504;2023-04-10T02:19:34;1.10;99.90
44513;DHT22;30219;50.588;9.504;2023-04-10T02:21:59;1.00;99.90
44513;DHT22;30219;50.588;9.504;2023-04-10T02:24:25;0.90;99.90
44513;DHT22;30219;50.588;9.504;2023-04-10T02:26:52;0.80;99.90
44513;DHT22;30219;50.588;9.504;2023-04-10T02:29:17;0.80;99.90
44513;DHT22;30219;50.588;9.504;2023-04-10T02:31:43;0.80;99.90
44513;DHT22;30219;50.588;9.504;2023-04-10T02:34:09;0.80;99.90
44513;DHT22;30219;50.588;9.504;2023-04-10T02:36:35;0.70;99.90
44513;DHT22;30219;50.588;9.504;2023-04-10T02:39:01;0.70;99.90
44513;DHT22;30219;50.588;9.504;2023-04-10T02:41:28;0.70;99.90
44513;DHT22;30219;50.588;9.504;2023-04-10T02:43:53;0.70;99.90
44513;DHT22;30219;50.588;9.504;2023-04-10T02:46:18;0.70;99.90
44513;DHT22;30219;50.588;9.504;2023-04-10T02:48:44;0.60;99.90
44513;DHT22;30219;50.588;9.504;2023-04-10T02:51:09;0.60;99.90
44513;DHT22;30219;50.588;9.504;2023-04-10T02:53:35;0.50;99.90
44513;DHT22;30219;50.588;9.504;2023-04-10T02:56:01;0.50;99.90
44513;DHT22;30219;50.588;9.504;2023-04-10T02:58:26;0.50;99.90
44513;DHT22;30219;50.588;9.504;2023-04-10T03:00:52;0.50;99.90
44513;DHT22;30219;50.588;9.504;2023-04-10T03:03:18;0.50;99.90
44513;DHT22;30219;50.588;9.504;2023-04-10T03:05:44;0.50;99.90
44513;DHT22;30219;50.588;9.504;2023-04-10T03:08:14;0.50;99.90
44513;DHT22;30219;50.588;9.504;2023-04-10T03:10:42;0.50;99.90
44513;DHT22;30219;50.588;9.504;2023-04-10T03:13:08;0.40;99.90
44513;DHT22;30219;50.588;9.504;2023-04-10T03:15:33;0.40;99.90
44513;DHT22;30219;50.588;9.504;2023-04-10T03:17:59;0.40;99.90
44513;DHT22;30219;50.588;9.504;2023-04-10T03:20:24;0.40;99.90
44513;DHT22;30219;50.588;9.504;2023-04-10T03:22:49;0.40;99.90
44513;DHT22;30219;50.588;9.504;2023-04-10T03:25:15;0.40;99.90
44513;DHT22;30219;50.588;9.504;2023-04-10T03:27:41;0.40;99.90
44513;DHT22;30219;50.588;9.504;2023-04-10T03:30:06;0.50;99.90
44513;DHT22;30219;50.588;9.504;2023-04-10T03:32:32;0.50;99.90
44513;DHT22;30219;50.588;9.504;2023-04-10T03:34:57;0.50;99.90
44513;DHT22;30219;50.588;9.504;2023-04-10T03:37:23;0.50;99.90
44513;DHT22;30219;50.588;9.504;2023-04-10T03:39:49;0.50;99.90
44513;DHT22;30219;50.588;9.504;2023-04-10T03:42:15;0.50;99.90
44513;DHT22;30219;50.588;9.504;2023-04-10T03:44:40;0.40;99.90
44513;DHT22;30219;50.588;9.504;2023-04-10T03:47:06;0.40;99.90
44513;DHT22;30219;50.588;9.504;2023-04-10T03:49:31;0.40;99.90
44513;DHT22;30219;50.588;9.504;2023-04-10T03:51:56;0.40;99.90
44513;DHT22;30219;50.588;9.504;2023-04-10T03:54:22;0.40;99.90
44513;DHT22;30219;50.588;9.504;2023-04-10T03:56:47;0.40;99.90
44513;DHT22;30219;50.588;9.504;2023-04-10T03:59:13;0.40;99.90
44513;DHT22;30219;50.588;9.504;2023-04-10T04:01:38;0.30;99.90
44513;DHT22;30219;50.588;9.504;2023-04-10T04:04:04;0.20;99.90
44513;DHT22;30219;50.588;9.504;2023-04-10T04:06:30;0.10;99.90
44513;DHT22;30219;50.588;9.504;2023-04-10T04:08:56;0.10;99.90
44513;DHT22;30219;50.588;9.504;2023-04-10T04:11:21;0.10;99.90
44513;DHT22;30219;50.588;9.504;2023-04-10T04:13:47;0.10;99.90
44513;DHT22;30219;50.588;9.504;2023-04-10T04:16:12;0.10;99.90
44513;DHT22;30219;50.588;9.504;2023-04-10T04:18:38;0.10;99.90
44513;DHT22;30219;50.588;9.504;2023-04-10T04:21:03;0.10;99.90
44513;DHT22;30219;50.588;9.504;2023-04-10T04:23:29;0.10;99.90
44513;DHT22;30219;50.588;9.504;2023-04-10T04:25:54;0.10;99.90
44513;DHT22;30219;50.588;9.504;2023-04-10T04:28:21;0.10;99.90
44513;DHT22;30219;50.588;9.504;2023-04-10T04:30:46;0.10;99.90
44513;DHT22;30219;50.588;9.504;2023-04-10T04:33:12;0.10;99.90
44513;DHT22;30219;50.588;9.504;2023-04-10T04:35:37;0.10;99.90
44513;DHT22;30219;50.588;9.504;2023-04-10T04:38:03;0.20;99.90
44513;DHT22;30219;50.588;9.504;2023-04-10T04:40:28;0.20;99.90
44513;DHT22;30219;50.588;9.504;2023-04-10T04:42:54;0.20;99.90
44513;DHT22;30219;50.588;9.504;2023-04-10T04:45:19;0.10;99.90
44513;DHT22;30219;50.588;9.504;2023-04-10T04:47:46;0.10;99.90
44513;DHT22;30219;50.588;9.504;2023-04-10T04:50:11;0.10;99.90
44513;DHT22;30219;50.588;9.504;2023-04-10T04:52:37;0.20;99.90
44513;DHT22;30219;50.588;9.504;2023-04-10T04:55:02;0.20;99.90
44513;DHT22;30219;50.588;9.504;2023-04-10T04:57:28;0.10;99.90
44513;DHT22;30219;50.588;9.504;2023-04-10T04:59:53;0.10;99.90
44513;DHT22;30219;50.588;9.504;2023-04-10T05:02:19;0.20;99.90
44513;DHT22;30219;50.588;9.504;2023-04-10T05:04:47;0.30;99.90
44513;DHT22;30219;50.588;9.504;2023-04-10T05:07:12;0.30;99.90
44513;DHT22;30219;50.588;9.504;2023-04-10T05:09:38;0.40;99.90
44513;DHT22;30219;50.588;9.504;2023-04-10T05:12:03;0.30;99.90
44513;DHT22;30219;50.588;9.504;2023-04-10T05:14:29;0.40;99.90
44513;DHT22;30219;50.588;9.504;2023-04-10T05:16:54;0.40;99.90
44513;DHT22;30219;50.588;9.504;2023-04-10T05:19:20;0.50;99.90
44513;DHT22;30219;50.588;9.504;2023-04-10T05:21:45;0.50;99.90
44513;DHT22;30219;50.588;9.504;2023-04-10T05:24:11;0.60;99.90
44513;DHT22;30219;50.588;9.504;2023-04-10T05:26:36;0.70;99.90
44513;DHT22;30219;50.588;9.504;2023-04-10T05:29:02;0.70;99.90
44513;DHT22;30219;50.588;9.504;2023-04-10T05:31:28;0.80;99.90
44513;DHT22;30219;50.588;9.504;2023-04-10T05:33:53;0.80;99.90
44513;DHT22;30219;50.588;9.504;2023-04-10T05:36:19;0.90;99.90
44513;DHT22;30219;50.588;9.504;2023-04-10T05:38:44;1.00;99.90
44513;DHT22;30219;50.588;9.504;2023-04-10T05:41:10;1.20;99.90
44513;DHT22;30219;50.588;9.504;2023-04-10T05:43:35;1.50;99.90
44513;DHT22;30219;50.588;9.504;2023-04-10T05:46:01;1.60;99.90
44513;DHT22;30219;50.588;9.504;2023-04-10T05:48:26;1.80;99.90
44513;DHT22;30219;50.588;9.504;2023-04-10T05:50:53;2.10;99.90
44513;DHT22;30219;50.588;9.504;2023-04-10T05:53:18;2.40;99.90
44513;DHT22;30219;50.588;9.504;2023-04-10T05:55:44;2.50;99.90
44513;DHT22;30219;50.588;9.504;2023-04-10T05:58:10;2.80;99.90
44513;DHT22;30219;50.588;9.504;2023-04-10T06:00:35;3.00;99.90
44513;DHT22;30219;50.588;9.504;2023-04-10T06:03:04;3.30;99.90
44513;DHT22;30219;50.588;9.504;2023-04-10T06:05:29;3.60;99.90
44513;DHT22;30219;50.588;9.504;2023-04-10T06:07:55;3.80;99.90
44513;DHT22;30219;50.588;9.504;2023-04-10T06:10:20;4.30;99.90
44513;DHT22;30219;50.588;9.504;2023-04-10T06:12:46;4.70;99.90
44513;DHT22;30219;50.588;9.504;2023-04-10T06:15:11;5.20;99.90
44513;DHT22;30219;50.588;9.504;2023-04-10T06:17:41;5.30;99.90
44513;DHT22;30219;50.588;9.504;2023-04-10T06:20:07;5.50;99.90
44513;DHT22;30219;50.588;9.504;2023-04-10T06:22:32;5.80;99.90
44513;DHT22;30219;50.588;9.504;2023-04-10T06:24:58;6.10;99.90
44513;DHT22;30219;50.588;9.504;2023-04-10T06:27:23;6.40;99.90
44513;DHT22;30219;50.588;9.504;2023-04-10T06:29:49;6.40;99.90
44513;DHT22;30219;50.588;9.504;2023-04-10T06:32:14;6.60;99.90
44513;DHT22;30219;50.588;9.504;2023-04-10T06:34:40;7.00;99.90
44513;DHT22;30219;50.588;9.504;2023-04-10T06:37:05;7.50;99.90
44513;DHT22;30219;50.588;9.504;2023-04-10T06:39:31;7.70;99.90
44513;DHT22;30219;50.588;9.504;2023-04-10T06:41:56;7.90;99.90
44513;DHT22;30219;50.588;9.504;2023-04-10T06:44:22;8.00;99.90
44513;DHT22;30219;50.588;9.504;2023-04-10T06:46:47;8.60;99.90
44513;DHT22;30219;50.588;9.504;2023-04-10T06:49:13;8.90;99.90
44513;DHT22;30219;50.588;9.504;2023-04-10T06:51:38;9.20;99.90
44513;DHT22;30219;50.588;9.504;2023-04-10T06:54:04;9.20;99.90
44513;DHT22;30219;50.588;9.504;2023-04-10T06:56:29;9.70;99.90
44513;DHT22;30219;50.588;9.504;2023-04-10T06:58:55;10.10;99.90
44513;DHT22;30219;50.588;9.504;2023-04-10T07:01:21;10.20;99.90
44513;DHT22;30219;50.588;9.504;2023-04-10T07:03:47;10.50;99.90
44513;DHT22;30219;50.588;9.504;2023-04-10T07:06:12;10.40;99.90
44513;DHT22;30219;50.588;9.504;2023-04-10T07:08:38;10.90;99.90
44513;DHT22;30219;50.588;9.504;2023-04-10T07:11:03;10.90;99.90
44513;DHT22;30219;50.588;9.504;2023-04-10T07:13:29;10.70;99.90
44513;DHT22;30219;50.588;9.504;2023-04-10T07:15:54;11.00;99.90
44513;DHT22;30219;50.588;9.504;2023-04-10T07:18:20;10.60;99.90
44513;DHT22;30219;50.588;9.504;2023-04-10T07:20:45;10.20;99.90
44513;DHT22;30219;50.588;9.504;2023-04-10T07:23:11;9.90;99.90
44513;DHT22;30219;50.588;9.504;2023-04-10T07:25:36;10.30;99.90
44513;DHT22;30219;50.588;9.504;2023-04-10T07:28:02;10.50;99.90
44513;DHT22;30219;50.588;9.504;2023-04-10T07:30:27;10.50;99.90
44513;DHT22;30219;50.588;9.504;2023-04-10T07:32:53;10.50;99.90
44513;DHT22;30219;50.588;9.504;2023-04-10T07:35:18;10.60;99.90
44513;DHT22;30219;50.588;9.504;2023-04-10T07:37:44;10.50;99.90
44513;DHT22;30219;50.588;9.504;2023-04-10T07:40:14;10.20;99.90
44513;DHT22;30219;50.588;9.504;2023-04-10T07:42:40;10.30;99.90
44513;DHT22;30219;50.588;9.504;2023-04-10T07:45:05;10.80;99.90
44513;DHT22;30219;50.588;9.504;2023-04-10T07:47:31;11.30;99.90
44513;DHT22;30219;50.588;9.504;2023-04-10T07:49:56;11.60;99.90
44513;DHT22;30219;50.588;9.504;2023-04-10T07:52:22;11.90;99.90
44513;DHT22;30219;50.588;9.504;2023-04-10T07:54:47;11.60;99.90
44513;DHT22;30219;50.588;9.504;2023-04-10T07:57:13;11.70;99.90
44513;DHT22;30219;50.588;9.504;2023-04-10T07:59:38;12.10;99.90
44513;DHT22;30219;50.588;9.504;2023-04-10T08:02:04;12.40;99.90
44513;DHT22;30219;50.588;9.504;2023-04-10T08:04:29;12.80;99.90
44513;DHT22;30219;50.588;9.504;2023-04-10T08:06:55;13.00;99.90
44513;DHT22;30219;50.588;9.504;2023-04-10T08:09:20;12.90;99.90
44513;DHT22;30219;50.588;9.504;2023-04-10T08:11:46;12.60;99.90
44513;DHT22;30219;50.588;9.504;2023-04-10T08:14:12;12.50;99.90
44513;DHT22;30219;50.588;9.504;2023-04-10T08:16:37;12.70;99.90
44513;DHT22;30219;50.588;9.504;2023-04-10T08:19:03;13.00;99.90
44513;DHT22;30219;50.588;9.504;2023-04-10T08:21:29;13.00;99.90
44513;DHT22;30219;50.588;9.504;2023-04-10T08:23:56;13.10;99.90
44513;DHT22;30219;50.588;9.504;2023-04-10T08:26:22;13.50;99.90
44513;DHT22;30219;50.588;9.504;2023-04-10T08:28:48;13.50;99.90
44513;DHT22;30219;50.588;9.504;2023-04-10T08:31:15;13.70;99.90
44513;DHT22;30219;50.588;9.504;2023-04-10T08:33:41;14.20;99.90
44513;DHT22;30219;50.588;9.504;2023-04-10T08:36:09;14.70;99.90
44513;DHT22;30219;50.588;9.504;2023-04-10T08:38:37;14.90;99.80
44513;DHT22;30219;50.588;9.504;2023-04-10T08:41:02;14.90;99.70
44513;DHT22;30219;50.588;9.504;2023-04-10T08:43:28;15.10;98.90
44513;DHT22;30219;50.588;9.504;2023-04-10T08:45:54;15.10;99.90
44513;DHT22;30219;50.588;9.504;2023-04-10T08:48:20;15.60;98.10
44513;DHT22;30219;50.588;9.504;2023-04-10T08:50:46;16.30;98.00
44513;DHT22;30219;50.588;9.504;2023-04-10T08:53:12;15.90;97.10
44513;DHT22;30219;50.588;9.504;2023-04-10T08:55:39;15.90;97.30
44513;DHT22;30219;50.588;9.504;2023-04-10T08:58:04;15.60;94.60
44513;DHT22;30219;50.588;9.504;2023-04-10T09:00:33;15.40;94.60
44513;DHT22;30219;50.588;9.504;2023-04-10T09:03:00;15.00;94.40
44513;DHT22;30219;50.588;9.504;2023-04-10T09:05:26;14.60;94.40
44513;DHT22;30219;50.588;9.504;2023-04-10T09:07:52;14.30;95.10
44513;DHT22;30219;50.588;9.504;2023-04-10T09:10:18;14.30;95.30
44513;DHT22;30219;50.588;9.504;2023-04-10T09:12:44;14.10;94.90
44513;DHT22;30219;50.588;9.504;2023-04-10T09:15:10;14.10;95.70
44513;DHT22;30219;50.588;9.504;2023-04-10T09:17:36;14.30;95.40
44513;DHT22;30219;50.588;9.504;2023-04-10T09:20:01;14.20;95.70
44513;DHT22;30219;50.588;9.504;2023-04-10T09:22:31;14.40;94.50
44513;DHT22;30219;50.588;9.504;2023-04-10T09:24:59;14.30;94.00
44513;DHT22;30219;50.588;9.504;2023-04-10T09:27:29;14.00;94.60
44513;DHT22;30219;50.588;9.504;2023-04-10T09:29:55;14.10;95.00
44513;DHT22;30219;50.588;9.504;2023-04-10T09:35:05;14.20;94.80
44513;DHT22;30219;50.588;9.504;2023-04-10T09:37:31;14.40;95.40
44513;DHT22;30219;50.588;9.504;2023-04-10T09:39:57;14.40;95.40
44513;DHT22;30219;50.588;9.504;2023-04-10T09:42:32;14.50;94.10
44513;DHT22;30219;50.588;9.504;2023-04-10T09:44:58;14.40;94.90
44513;DHT22;30219;50.588;9.504;2023-04-10T09:47:24;14.30;94.40
44513;DHT22;30219;50.588;9.504;2023-04-10T09:49:50;14.50;95.40
44513;DHT22;30219;50.588;9.504;2023-04-10T09:52:21;14.90;96.20
44513;DHT22;30219;50.588;9.504;2023-04-10T09:54:46;15.00;95.10
44513;DHT22;30219;50.588;9.504;2023-04-10T09:57:13;14.70;93.70
44513;DHT22;30219;50.588;9.504;2023-04-10T09:59:40;14.70;93.50
44513;DHT22;30219;50.588;9.504;2023-04-10T10:02:09;14.80;92.20
44513;DHT22;30219;50.588;9.504;2023-04-10T10:04:35;14.90;93.60
44513;DHT22;30219;50.588;9.504;2023-04-10T10:07:01;14.80;92.40
44513;DHT22;30219;50.588;9.504;2023-04-10T10:09:26;14.70;93.20
44513;DHT22;30219;50.588;9.504;2023-04-10T10:11:52;14.60;93.70
44513;DHT22;30219;50.588;9.504;2023-04-10T10:14:19;14.70;93.50
44513;DHT22;30219;50.588;9.504;2023-04-10T10:16:46;14.90;92.70
44513;DHT22;30219;50.588;9.504;2023-04-10T10:19:19;14.90;92.60
44513;DHT22;30219;50.588;9.504;2023-04-10T10:21:48;14.90;92.10
44513;DHT22;30219;50.588;9.504;2023-04-10T10:24:14;15.20;92.20
44513;DHT22;30219;50.588;9.504;2023-04-10T10:26:40;15.20;92.10
44513;DHT22;30219;50.588;9.504;2023-04-10T10:29:08;15.20;92.80
44513;DHT22;30219;50.588;9.504;2023-04-10T10:31:38;15.20;92.30
44513;DHT22;30219;50.588;9.504;2023-04-10T10:34:04;15.00;91.60
44513;DHT22;30219;50.588;9.504;2023-04-10T10:36:32;15.00;92.90
44513;DHT22;30219;50.588;9.504;2023-04-10T10:41:35;15.10;92.00
44513;DHT22;30219;50.588;9.504;2023-04-10T10:44:07;14.90;92.60
44513;DHT22;30219;50.588;9.504;2023-04-10T10:46:39;15.00;91.30
44513;DHT22;30219;50.588;9.504;2023-04-10T10:49:05;15.00;91.90
44513;DHT22;30219;50.588;9.504;2023-04-10T10:51:47;15.20;91.30
44513;DHT22;30219;50.588;9.504;2023-04-10T10:54:29;15.40;92.60
44513;DHT22;30219;50.588;9.504;2023-04-10T10:56:54;15.80;91.40
44513;DHT22;30219;50.588;9.504;2023-04-10T11:02:24;15.60;91.00
44513;DHT22;30219;50.588;9.504;2023-04-10T11:04:50;15.40;91.80
44513;DHT22;30219;50.588;9.504;2023-04-10T11:07:16;15.60;91.30
44513;DHT22;30219;50.588;9.504;2023-04-10T11:09:45;15.50;91.90
44513;DHT22;30219;50.588;9.504;2023-04-10T11:12:14;15.40;90.30
44513;DHT22;30219;50.588;9.504;2023-04-10T11:14:41;15.50;91.50
44513;DHT22;30219;50.588;9.504;2023-04-10T11:17:06;15.40;89.00
44513;DHT22;30219;50.588;9.504;2023-04-10T11:22:16;15.60;91.10
44513;DHT22;30219;50.588;9.504;2023-04-10T11:27:36;15.90;91.40
44513;DHT22;30219;50.588;9.504;2023-04-10T11:30:02;16.10;90.00
44513;DHT22;30219;50.588;9.504;2023-04-10T11:32:33;15.90;90.10
44513;DHT22;30219;50.588;9.504;2023-04-10T11:35:05;15.70;90.20
44513;DHT22;30219;50.588;9.504;2023-04-10T11:37:30;15.40;90.50
44513;DHT22;30219;50.588;9.504;2023-04-10T11:40:05;15.70;90.60
44513;DHT22;30219;50.588;9.504;2023-04-10T11:42:31;15.70;91.90
44513;DHT22;30219;50.588;9.504;2023-04-10T11:44:56;15.80;90.20
44513;DHT22;30219;50.588;9.504;2023-04-10T11:47:24;16.00;90.40
44513;DHT22;30219;50.588;9.504;2023-04-10T11:49:52;15.90;90.00
44513;DHT22;30219;50.588;9.504;2023-04-10T11:52:23;15.50;90.40
44513;DHT22;30219;50.588;9.504;2023-04-10T11:54:49;15.40;89.60
44513;DHT22;30219;50.588;9.504;2023-04-10T11:57:14;15.30;89.60
44513;DHT22;30219;50.588;9.504;2023-04-10T11:59:48;15.20;88.70
44513;DHT22;30219;50.588;9.504;2023-04-10T12:02:13;15.50;90.10
44513;DHT22;30219;50.588;9.504;2023-04-10T12:04:40;15.60;87.70
44513;DHT22;30219;50.588;9.504;2023-04-10T12:07:06;15.50;89.30
44513;DHT22;30219;50.588;9.504;2023-04-10T12:09:31;15.50;89.20
44513;DHT22;30219;50.588;9.504;2023-04-10T12:11:58;15.40;86.60
44513;DHT22;30219;50.588;9.504;2023-04-10T12:14:28;15.40;90.80
44513;DHT22;30219;50.588;9.504;2023-04-10T12:16:55;15.50;90.20
44513;DHT22;30219;50.588;9.504;2023-04-10T12:19:21;15.40;89.90
44513;DHT22;30219;50.588;9.504;2023-04-10T12:21:47;15.30;90.10
44513;DHT22;30219;50.588;9.504;2023-04-10T12:24:19;15.30;90.00
44513;DHT22;30219;50.588;9.504;2023-04-10T12:26:58;15.40;88.30
44513;DHT22;30219;50.588;9.504;2023-04-10T12:29:24;15.50;90.80
44513;DHT22;30219;50.588;9.504;2023-04-10T12:31:51;15.80;90.30
44513;DHT22;30219;50.588;9.504;2023-04-10T12:34:17;15.90;88.40
44513;DHT22;30219;50.588;9.504;2023-04-10T12:36:43;15.60;88.70
44513;DHT22;30219;50.588;9.504;2023-04-10T12:39:22;15.70;90.20
44513;DHT22;30219;50.588;9.504;2023-04-10T12:41:48;15.70;88.40
44513;DHT22;30219;50.588;9.504;2023-04-10T12:44:14;15.70;90.20
44513;DHT22;30219;50.588;9.504;2023-04-10T12:46:40;15.70;90.80
44513;DHT22;30219;50.588;9.504;2023-04-10T12:49:12;15.70;90.00
44513;DHT22;30219;50.588;9.504;2023-04-10T12:54:06;15.40;90.10
44513;DHT22;30219;50.588;9.504;2023-04-10T12:56:39;15.40;91.00
44513;DHT22;30219;50.588;9.504;2023-04-10T12:59:05;15.30;90.00
44513;DHT22;30219;50.588;9.504;2023-04-10T13:01:31;15.30;90.60
44513;DHT22;30219;50.588;9.504;2023-04-10T13:03:57;15.40;90.40
44513;DHT22;30219;50.588;9.504;2023-04-10T13:06:22;15.50;90.70
44513;DHT22;30219;50.588;9.504;2023-04-10T13:08:48;15.70;91.10
44513;DHT22;30219;50.588;9.504;2023-04-10T13:11:16;15.70;90.30
44513;DHT22;30219;50.588;9.504;2023-04-10T13:13:42;15.70;90.60
44513;DHT22;30219;50.588;9.504;2023-04-10T13:16:07;15.70;90.60
44513;DHT22;30219;50.588;9.504;2023-04-10T13:18:36;15.80;90.60
44513;DHT22;30219;50.588;9.504;2023-04-10T13:21:03;15.70;91.10
44513;DHT22;30219;50.588;9.504;2023-04-10T13:23:28;15.60;90.60
44513;DHT22;30219;50.588;9.504;2023-04-10T13:25:54;15.50;91.50
44513;DHT22;30219;50.588;9.504;2023-04-10T13:28:21;15.50;90.70
44513;DHT22;30219;50.588;9.504;2023-04-10T13:30:46;15.60;91.20
44513;DHT22;30219;50.588;9.504;2023-04-10T13:33:12;15.70;91.70
44513;DHT22;30219;50.588;9.504;2023-04-10T13:35:37;15.70;91.30
44513;DHT22;30219;50.588;9.504;2023-04-10T13:38:04;15.90;90.70
44513;DHT22;30219;50.588;9.504;2023-04-10T13:40:29;15.90;91.30
44513;DHT22;30219;50.588;9.504;2023-04-10T13:42:55;16.00;90.70
44513;DHT22;30219;50.588;9.504;2023-04-10T13:45:21;16.00;91.40
44513;DHT22;30219;50.588;9.504;2023-04-10T13:47:46;15.90;90.40
44513;DHT22;30219;50.588;9.504;2023-04-10T13:50:12;16.00;91.00
44513;DHT22;30219;50.588;9.504;2023-04-10T13:52:37;16.00;90.00
44513;DHT22;30219;50.588;9.504;2023-04-10T13:55:03;15.90;90.80
44513;DHT22;30219;50.588;9.504;2023-04-10T13:57:28;16.00;89.80
44513;DHT22;30219;50.588;9.504;2023-04-10T13:59:54;16.00;88.60
44513;DHT22;30219;50.588;9.504;2023-04-10T14:02:20;16.00;87.40
44513;DHT22;30219;50.588;9.504;2023-04-10T14:04:45;15.90;86.60
44513;DHT22;30219;50.588;9.504;2023-04-10T14:07:11;15.90;87.40
44513;DHT22;30219;50.588;9.504;2023-04-10T14:09:37;15.90;87.00
44513;DHT22;30219;50.588;9.504;2023-04-10T14:12:03;15.90;87.70
44513;DHT22;30219;50.588;9.504;2023-04-10T14:14:29;15.90;90.40
44513;DHT22;30219;50.588;9.504;2023-04-10T14:16:54;16.00;88.80
44513;DHT22;30219;50.588;9.504;2023-04-10T14:19:20;16.10;89.50
44513;DHT22;30219;50.588;9.504;2023-04-10T14:21:46;16.20;88.30
44513;DHT22;30219;50.588;9.504;2023-04-10T14:24:11;16.20;86.60
44513;DHT22;30219;50.588;9.504;2023-04-10T14:26:37;16.10;87.00
44513;DHT22;30219;50.588;9.504;2023-04-10T14:29:02;16.10;88.30
44513;DHT22;30219;50.588;9.504;2023-04-10T14:31:28;16.00;87.50
44513;DHT22;30219;50.588;9.504;2023-04-10T14:33:53;15.90;87.40
44513;DHT22;30219;50.588;9.504;2023-04-10T14:36:19;15.90;87.90
44513;DHT22;30219;50.588;9.504;2023-04-10T14:38:44;15.80;86.40
44513;DHT22;30219;50.588;9.504;2023-04-10T14:41:10;15.70;87.30
44513;DHT22;30219;50.588;9.504;2023-04-10T14:43:36;15.70;88.30
44513;DHT22;30219;50.588;9.504;2023-04-10T14:46:01;15.70;87.50
44513;DHT22;30219;50.588;9.504;2023-04-10T14:48:26;15.80;86.40
44513;DHT22;30219;50.588;9.504;2023-04-10T14:50:52;15.80;86.20
44513;DHT22;30219;50.588;9.504;2023-04-10T14:53:19;15.80;86.10
44513;DHT22;30219;50.588;9.504;2023-04-10T14:55:46;15.80;85.80
44513;DHT22;30219;50.588;9.504;2023-04-10T14:58:11;15.90;86.00
44513;DHT22;30219;50.588;9.504;2023-04-10T15:00:37;15.90;89.20
44513;DHT22;30219;50.588;9.504;2023-04-10T15:03:02;16.00;87.10
44513;DHT22;30219;50.588;9.504;2023-04-10T15:05:30;16.00;87.70
44513;DHT22;30219;50.588;9.504;2023-04-10T15:07:55;16.00;87.10
44513;DHT22;30219;50.588;9.504;2023-04-10T15:10:21;16.10;86.10
44513;DHT22;30219;50.588;9.504;2023-04-10T15:12:46;16.10;85.40
44513;DHT22;30219;50.588;9.504;2023-04-10T15:15:12;16.10;85.20
44513;DHT22;30219;50.588;9.504;2023-04-10T15:17:37;16.20;86.90
44513;DHT22;30219;50.588;9.504;2023-04-10T15:20:03;16.30;85.30
44513;DHT22;30219;50.588;9.504;2023-04-10T15:22:29;16.10;87.00
44513;DHT22;30219;50.588;9.504;2023-04-10T15:24:55;16.10;86.20
44513;DHT22;30219;50.588;9.504;2023-04-10T15:27:20;16.10;85.30
44513;DHT22;30219;50.588;9.504;2023-04-10T15:29:46;16.00;86.40
44513;DHT22;30219;50.588;9.504;2023-04-10T15:32:11;16.00;85.70
44513;DHT22;30219;50.588;9.504;2023-04-10T15:34:36;15.90;84.20
44513;DHT22;30219;50.588;9.504;2023-04-10T15:37:02;15.90;85.20
44513;DHT22;30219;50.588;9.504;2023-04-10T15:39:27;15.90;84.60
44513;DHT22;30219;50.588;9.504;2023-04-10T15:41:55;15.90;86.50
44513;DHT22;30219;50.588;9.504;2023-04-10T15:44:20;16.00;86.30
44513;DHT22;30219;50.588;9.504;2023-04-10T15:46:46;16.00;84.20
44513;DHT22;30219;50.588;9.504;2023-04-10T15:49:12;15.90;85.00
44513;DHT22;30219;50.588;9.504;2023-04-10T15:51:37;16.00;84.50
44513;DHT22;30219;50.588;9.504;2023-04-10T15:54:02;16.10;83.90
44513;DHT22;30219;50.588;9.504;2023-04-10T15:56:29;16.10;83.70
44513;DHT22;30219;50.588;9.504;2023-04-10T15:58:55;16.20;86.30